Time;durP1;ratioP1;P1;durP2;ratioP2;P2;SDS_P1;SDS_P2;PMS_P1;PMS_P2;Temp;Humidity;BMP_temperature;BMP_pressure;BME280_temperature;BME280_humidity;BME280_pressure;Samples;Min_cycle;Max_cycle;Signal;HPM_P1;HPM_P2
2022/08/22 00:03:01;;;;;;;;;;;;;;;21.49;48.63;100556.72;4967274;28;6784;-74
2022/08/22 00:05:55;;;;;;;;;;;;;;;21.45;48.92;100551.47;4991826;28;7359;-73
2022/08/22 00:08:46;;;;;;;;;;;;;;;21.40;49.17;100559.25;4960494;28;6990;-74
2022/08/22 00:11:45;;;;;;;;;;;;;;;21.37;48.81;100546.22;4966132;28;6855;-74
2022/08/22 00:15:02;;;;;;;;;;;;;;;21.34;49.06;100549.69;4983415;28;7033;-74
2022/08/22 00:17:36;;;;;;;;;;;;;;;21.32;49.12;100550.53;4990018;28;6812;-74
2022/08/22 00:20:12;;;;;;;;;;;;;;;21.33;48.89;100552.25;4964693;28;6796;-74
2022/08/22 00:23:16;;;;;;;;;;;;;;;21.31;49.23;100554.00;4981792;28;7020;-74
2022/08/22 00:26:01;;;;;;;;;;;;;;;21.27;49.57;100549.63;4990028;28;7170;-74
2022/08/22 00:28:40;;;;;;;;;;;;;;;21.22;49.85;100553.06;4980185;28;6832;-74
2022/08/22 00:31:30;;;;;;;;;;;;;;;21.20;49.80;100549.59;4959818;28;6973;-74
2022/08/22 00:34:37;;;;;;;;;;;;;;;21.16;49.83;100544.34;4964940;28;7205;-74
2022/08/22 00:37:38;;;;;;;;;;;;;;;21.15;49.93;100550.41;4990810;28;7227;-74
2022/08/22 00:40:38;;;;;;;;;;;;;;;21.10;49.88;100542.56;4971386;28;7714;-74
2022/08/22 00:44:00;;;;;;;;;;;;;;;21.04;50.15;100540.81;4977374;28;8328;-74
2022/08/22 00:47:17;;;;;;;;;;;;;;;20.98;50.33;100545.09;4964373;28;7265;-74
2022/08/22 00:50:20;;;;;;;;;;;;;;;20.89;50.68;100541.56;4951280;28;7244;-74
2022/08/22 00:53:20;;;;;;;;;;;;;;;20.83;50.37;100538.91;4958538;28;7102;-74
2022/08/22 00:56:28;;;;;;;;;;;;;;;20.78;50.66;100527.56;4976084;28;7093;-74
2022/08/22 00:59:27;;;;;;;;;;;;;;;20.73;50.56;100521.44;4977875;28;7308;-74
2022/08/22 01:02:48;;;;;;;;;;;;;;;20.68;50.90;100527.47;4960023;28;6816;-74
2022/08/22 01:05:53;;;;;;;;;;;;;;;20.64;51.06;100525.69;4961789;28;7124;-74
2022/08/22 01:08:38;;;;;;;;;;;;;;;20.61;51.18;100520.47;4967070;28;6816;-74
2022/08/22 01:11:40;;;;;;;;;;;;;;;20.62;51.09;100523.97;4964529;28;7156;-74
2022/08/22 01:14:28;;;;;;;;;;;;;;;20.62;51.29;100518.75;4985494;28;6991;-74
2022/08/22 01:17:40;;;;;;;;;;;;;;;20.63;50.97;100523.97;4956302;28;7801;-74
2022/08/22 01:20:40;;;;;;;;;;;;;;;20.62;51.37;100523.97;4995550;28;7242;-74
2022/08/22 01:23:29;;;;;;;;;;;;;;;20.61;51.37;100525.69;4975056;28;7161;-74
2022/08/22 01:26:43;;;;;;;;;;;;;;;20.61;50.96;100523.06;4960009;28;7082;-74
2022/08/22 01:29:53;;;;;;;;;;;;;;;20.62;51.81;100532.63;4963419;28;6804;-74
2022/08/22 01:33:14;;;;;;;;;;;;;;;20.63;51.51;100529.16;4959743;28;6881;-74
2022/08/22 01:36:01;;;;;;;;;;;;;;;20.66;51.87;100523.97;4980446;28;6869;-74
2022/08/22 01:38:58;;;;;;;;;;;;;;;20.69;51.21;100515.31;4963107;28;6812;-74
2022/08/22 01:41:42;;;;;;;;;;;;;;;20.72;51.80;100524.91;4965133;28;6852;-74
2022/08/22 01:44:32;;;;;;;;;;;;;;;20.73;51.50;100531.84;4960530;28;7008;-74
2022/08/22 01:47:17;;;;;;;;;;;;;;;20.74;51.41;100528.38;4960553;28;7422;-74
2022/08/22 01:49:59;;;;;;;;;;;;;;;20.72;51.42;100520.56;4964360;28;6802;-74
2022/08/22 01:52:52;;;;;;;;;;;;;;;20.73;51.48;100526.63;4987472;28;6990;-74
2022/08/22 01:56:01;;;;;;;;;;;;;;;20.71;51.88;100518.81;4974910;28;7188;-74
2022/08/22 01:58:32;;;;;;;;;;;;;;;20.68;51.74;100527.47;4961715;28;7521;-74
2022/08/22 02:01:10;;;;;;;;;;;;;;;20.68;51.74;100529.19;4960388;28;7001;-74
2022/08/22 02:03:49;;;;;;;;;;;;;;;20.66;51.77;100518.75;4960718;28;6807;-74
2022/08/22 02:06:32;;;;;;;;;;;;;;;20.64;51.59;100514.44;4960310;28;7023;-74
2022/08/22 02:09:25;;;;;;;;;;;;;;;20.61;51.76;100516.97;4962630;28;7899;-74
2022/08/22 02:12:24;;;;;;;;;;;;;;;20.58;51.54;100522.16;4960274;28;6804;-75
2022/08/22 02:15:41;;;;;;;;;;;;;;;20.56;52.09;100516.94;4962649;28;6796;-75
2022/08/22 02:18:11;;;;;;;;;;;;;;;20.53;51.86;100519.53;4959642;28;6811;-74
2022/08/22 02:21:17;;;;;;;;;;;;;;;20.55;51.83;100528.22;4964668;28;7278;-75
2022/08/22 02:24:01;;;;;;;;;;;;;;;20.56;52.35;100521.28;4974452;28;7201;-75
2022/08/22 02:27:04;;;;;;;;;;;;;;;20.59;52.33;100521.31;4982508;28;7024;-75
2022/08/22 02:30:11;;;;;;;;;;;;;;;20.61;52.39;100523.06;4990849;28;7872;-75
2022/08/22 02:32:40;;;;;;;;;;;;;;;20.63;52.08;100513.53;4960514;28;8026;-75
2022/08/22 02:35:11;;;;;;;;;;;;;;;20.64;52.35;100514.44;4990075;28;7119;-75
2022/08/22 02:38:18;;;;;;;;;;;;;;;20.65;52.46;100510.97;4961847;28;6792;-75
2022/08/22 02:41:09;;;;;;;;;;;;;;;20.65;52.00;100510.97;4964887;28;7168;-75
2022/08/22 02:44:12;;;;;;;;;;;;;;;20.64;52.33;100509.22;4959913;28;7156;-75
2022/08/22 02:46:59;;;;;;;;;;;;;;;20.64;52.32;100511.81;4961878;28;6804;-75
2022/08/22 02:49:42;;;;;;;;;;;;;;;20.65;52.75;100511.81;4988221;28;7186;-75
2022/08/22 02:52:28;;;;;;;;;;;;;;;20.65;52.24;100506.59;4960842;28;7131;-75
2022/08/22 02:55:06;;;;;;;;;;;;;;;20.63;52.05;100505.72;4991603;28;7184;-75
2022/08/22 02:57:37;;;;;;;;;;;;;;;20.62;52.81;100508.34;4963664;28;7180;-75
2022/08/22 03:00:29;;;;;;;;;;;;;;;20.59;52.33;100506.56;4962738;28;6981;-74
2022/08/22 03:03:15;;;;;;;;;;;;;;;20.56;52.33;100508.28;4975832;28;13620;-74
2022/08/22 03:05:59;;;;;;;;;;;;;;;20.51;52.58;100503.88;4963187;28;7289;-74
2022/08/22 03:08:34;;;;;;;;;;;;;;;20.47;52.76;100507.34;4991731;28;7235;-74
2022/08/22 03:11:25;;;;;;;;;;;;;;;20.43;52.37;100507.28;4977695;28;6852;-74
2022/08/22 03:14:23;;;;;;;;;;;;;;;20.38;52.38;100502.94;4988137;28;6820;-74
2022/08/22 03:17:01;;;;;;;;;;;;;;;20.31;53.19;100498.53;4988199;28;6986;-74
2022/08/22 03:20:06;;;;;;;;;;;;;;;20.25;52.38;100495.84;4960515;28;7149;-74
2022/08/22 03:22:47;;;;;;;;;;;;;;;20.18;53.10;100499.25;4973406;28;8193;-74
2022/08/22 03:25:29;;;;;;;;;;;;;;;20.11;52.94;100498.31;4964120;28;6987;-74
2022/08/22 03:28:25;;;;;;;;;;;;;;;20.03;53.34;100495.63;4945866;28;6800;-74
2022/08/22 03:30:58;;;;;;;;;;;;;;;19.96;53.27;100504.22;4954965;28;7547;-74
2022/08/22 03:33:29;;;;;;;;;;;;;;;19.89;53.13;100503.25;4960869;28;7323;-74
2022/08/22 03:36:13;;;;;;;;;;;;;;;19.82;53.46;100499.72;4953374;28;7197;-74
2022/08/22 03:39:11;;;;;;;;;;;;;;;19.74;53.54;100498.75;4966452;28;7149;-74
2022/08/22 03:42:27;;;;;;;;;;;;;;;19.68;53.95;100501.28;4962241;28;8153;-75
2022/08/22 03:45:17;;;;;;;;;;;;;;;19.60;53.71;100497.69;4969640;28;7029;-76
2022/08/22 03:48:26;;;;;;;;;;;;;;;19.53;54.33;100488.97;4974089;28;7148;-74
2022/08/22 03:51:41;;;;;;;;;;;;;;;19.46;54.13;100482.81;4959786;28;7868;-74
2022/08/22 03:54:47;;;;;;;;;;;;;;;19.39;54.25;100483.59;4959608;28;6832;-74
2022/08/22 03:57:43;;;;;;;;;;;;;;;19.34;54.73;100480.94;4987782;28;7214;-74
2022/08/22 04:00:46;;;;;;;;;;;;;;;19.30;54.76;100476.56;4958511;28;7008;-74
2022/08/22 04:03:55;;;;;;;;;;;;;;;19.26;54.64;100480.84;4956188;28;11362;-74
2022/08/22 04:06:44;;;;;;;;;;;;;;;19.20;54.54;100480.75;4960242;28;6906;-73
2022/08/22 04:09:41;;;;;;;;;;;;;;;19.14;55.04;100478.09;4962057;28;7213;-72
2022/08/22 04:12:41;;;;;;;;;;;;;;;19.08;54.68;100491.84;4960278;28;7137;-73
2022/08/22 04:15:38;;;;;;;;;;;;;;;19.02;55.31;100491.75;4955080;28;6906;-73
2022/08/22 04:18:06;;;;;;;;;;;;;;;18.96;55.03;100486.44;4963045;28;6949;-74
2022/08/22 04:21:26;;;;;;;;;;;;;;;18.94;55.05;100494.22;4979257;28;7338;-74
2022/08/22 04:24:18;;;;;;;;;;;;;;;18.90;55.26;100496.75;4995519;28;7019;-73
2022/08/22 04:27:09;;;;;;;;;;;;;;;18.86;55.26;100490.63;4963208;28;6970;-73
2022/08/22 04:29:49;;;;;;;;;;;;;;;18.83;55.35;100486.25;4977301;28;7086;-73
2022/08/22 04:32:35;;;;;;;;;;;;;;;18.79;56.01;100481.00;4950418;28;7136;-73
2022/08/22 04:35:10;;;;;;;;;;;;;;;18.76;55.56;100487.00;4946078;28;7171;-73
2022/08/22 04:37:53;;;;;;;;;;;;;;;18.73;55.88;100484.38;4952874;28;7213;-75
2022/08/22 04:40:43;;;;;;;;;;;;;;;18.69;55.40;100488.63;4970370;28;7004;-74
2022/08/22 04:43:43;;;;;;;;;;;;;;;18.66;55.89;100482.50;4972755;28;6808;-75
2022/08/22 04:46:44;;;;;;;;;;;;;;;18.66;56.02;100488.59;4935354;28;7018;-75
2022/08/22 04:49:34;;;;;;;;;;;;;;;18.65;56.04;100484.25;4943696;28;7221;-75
2022/08/22 04:52:34;;;;;;;;;;;;;;;18.66;56.33;100493.78;4934425;28;7024;-75
2022/08/22 04:55:57;;;;;;;;;;;;;;;18.64;56.62;100492.88;4946851;28;6816;-74
2022/08/22 04:58:32;;;;;;;;;;;;;;;18.63;56.56;100492.84;4948284;28;6926;-75
2022/08/22 05:01:17;;;;;;;;;;;;;;;18.62;56.68;100497.16;4950871;28;6967;-74
2022/08/22 05:04:04;;;;;;;;;;;;;;;18.64;56.67;100499.78;4962550;28;7259;-74
2022/08/22 05:06:41;;;;;;;;;;;;;;;18.67;56.65;100495.53;4962752;28;6948;-74
2022/08/22 05:09:14;;;;;;;;;;;;;;;18.70;57.12;100495.56;4967873;28;7345;-75
2022/08/22 05:11:42;;;;;;;;;;;;;;;18.74;57.48;100499.97;4972062;28;6990;-75
2022/08/22 05:14:24;;;;;;;;;;;;;;;18.78;57.11;100503.47;4963007;28;6958;-74
2022/08/22 05:16:55;;;;;;;;;;;;;;;18.82;57.19;100504.38;4964402;28;7203;-74
2022/08/22 05:19:33;;;;;;;;;;;;;;;18.85;57.46;100507.06;4973610;28;7037;-74
2022/08/22 05:22:00;;;;;;;;;;;;;;;18.90;57.27;100513.19;4984264;28;7006;-75
2022/08/22 05:24:39;;;;;;;;;;;;;;;18.96;57.59;100507.19;4960261;28;8851;-74
2022/08/22 05:27:15;;;;;;;;;;;;;;;19.03;57.71;100508.22;4962645;28;8072;-74
2022/08/22 05:29:47;;;;;;;;;;;;;;;19.08;58.00;100516.94;4964378;28;7252;-74
2022/08/22 05:33:00;;;;;;;;;;;;;;;19.13;57.20;100518.75;4970095;28;6998;-74
2022/08/22 05:35:52;;;;;;;;;;;;;;;19.22;57.46;100519.75;4963223;28;7241;-74
2022/08/22 05:38:30;;;;;;;;;;;;;;;19.28;57.40;100515.50;4967482;28;7254;-74
2022/08/22 05:41:07;;;;;;;;;;;;;;;19.38;57.39;100519.13;4962606;28;6948;-73
2022/08/22 05:43:42;;;;;;;;;;;;;;;19.47;57.84;100520.94;4972747;28;6888;-73
2022/08/22 05:46:23;;;;;;;;;;;;;;;19.58;57.75;100518.50;4976974;28;6987;-73
2022/08/22 05:49:02;;;;;;;;;;;;;;;19.70;57.53;100520.34;4960794;28;6888;-73
2022/08/22 05:51:47;;;;;;;;;;;;;;;19.80;57.74;100514.44;4962418;28;7239;-73
2022/08/22 05:54:32;;;;;;;;;;;;;;;19.92;57.60;100516.28;4959160;28;7304;-73
2022/08/22 05:57:35;;;;;;;;;;;;;;;20.07;57.23;100512.16;4972700;28;7213;-73
2022/08/22 06:00:13;;;;;;;;;;;;;;;20.23;57.60;100519.28;4966946;28;7170;-73
2022/08/22 06:02:41;;;;;;;;;;;;;;;20.40;57.15;100516.81;4961662;28;11858;-73
2022/08/22 06:05:09;;;;;;;;;;;;;;;20.62;57.07;100526.56;4961238;28;6864;-73
2022/08/22 06:07:47;;;;;;;;;;;;;;;20.83;56.61;100522.41;4972076;28;6804;-73
2022/08/22 06:10:35;;;;;;;;;;;;;;;21.09;56.44;100525.19;4974090;28;7180;-73
2022/08/22 06:13:10;;;;;;;;;;;;;;;21.36;56.28;100532.31;4958946;28;6801;-74
2022/08/22 06:15:52;;;;;;;;;;;;;;;21.66;55.98;100529.84;4976493;28;7159;-73
2022/08/22 06:18:27;;;;;;;;;;;;;;;21.97;55.53;100522.16;4961437;28;7287;-73
2022/08/22 06:20:59;;;;;;;;;;;;;;;22.26;55.06;100510.91;4963249;28;6804;-73
2022/08/22 06:23:43;;;;;;;;;;;;;;;22.54;54.68;100513.56;4955132;28;7249;-73
2022/08/22 06:26:11;;;;;;;;;;;;;;;22.80;54.22;100509.22;4977449;28;7696;-73
2022/08/22 06:28:42;;;;;;;;;;;;;;;23.05;54.10;100519.63;4973266;28;6796;-73
2022/08/22 06:31:25;;;;;;;;;;;;;;;23.28;53.33;100524.84;4957111;28;7005;-73
2022/08/22 06:34:28;;;;;;;;;;;;;;;23.42;52.97;100520.44;4990855;28;6990;-73
2022/08/22 06:37:00;;;;;;;;;;;;;;;23.54;52.10;100522.16;4979591;28;6994;-73
2022/08/22 06:39:33;;;;;;;;;;;;;;;23.62;52.17;100519.50;4974617;28;7106;-73
2022/08/22 06:42:28;;;;;;;;;;;;;;;23.68;51.93;100514.25;4974157;28;7284;-73
2022/08/22 06:45:11;;;;;;;;;;;;;;;23.72;51.82;100515.09;4963800;28;6847;-73
2022/08/22 06:47:45;;;;;;;;;;;;;;;23.77;51.89;100509.84;4961136;28;6804;-73
2022/08/22 06:50:35;;;;;;;;;;;;;;;23.80;51.58;100512.44;4961431;28;7007;-73
2022/08/22 06:53:14;;;;;;;;;;;;;;;23.87;51.24;100519.38;4961253;28;8522;-73
2022/08/22 06:56:06;;;;;;;;;;;;;;;23.94;51.38;100513.22;4962523;28;6807;-73
2022/08/22 06:58:41;;;;;;;;;;;;;;;24.05;50.92;100505.34;4941009;28;7017;-73
2022/08/22 07:01:34;;;;;;;;;;;;;;;24.19;50.98;100504.38;4962609;28;6800;-74
2022/08/22 07:04:08;;;;;;;;;;;;;;;24.29;50.25;100510.44;4978272;28;7284;-73
2022/08/22 07:06:46;;;;;;;;;;;;;;;24.38;50.40;100510.34;4972647;28;7179;-73
2022/08/22 07:09:33;;;;;;;;;;;;;;;24.46;50.24;100500.69;4956647;28;6951;-73
2022/08/22 07:12:30;;;;;;;;;;;;;;;24.59;50.30;100505.81;4970674;28;7215;-73
2022/08/22 07:15:27;;;;;;;;;;;;;;;24.76;50.51;100510.91;4957049;28;7750;-73
2022/08/22 07:18:01;;;;;;;;;;;;;;;24.91;49.50;100513.44;4963727;28;7343;-73
2022/08/22 07:20:37;;;;;;;;;;;;;;;25.07;49.30;100522.00;4959482;28;8669;-73
2022/08/22 07:23:09;;;;;;;;;;;;;;;25.22;49.01;100510.47;4986014;28;7009;-73
2022/08/22 07:25:57;;;;;;;;;;;;;;;25.36;48.96;100510.31;4975487;28;6872;-73
2022/08/22 07:28:37;;;;;;;;;;;;;;;25.47;48.13;100511.94;4994785;28;6812;-73
2022/08/22 07:31:32;;;;;;;;;;;;;;;25.58;48.14;100517.94;4962687;28;6824;-73
2022/08/22 07:34:32;;;;;;;;;;;;;;;25.67;47.62;100513.47;4992368;28;8434;-73
2022/08/22 07:37:06;;;;;;;;;;;;;;;25.74;47.82;100525.63;4963540;28;6796;-73
2022/08/22 07:40:07;;;;;;;;;;;;;;;25.84;47.76;100524.63;4976862;28;6995;-73
2022/08/22 07:43:29;;;;;;;;;;;;;;;25.98;47.48;100523.56;4965908;28;7972;-73
2022/08/22 07:46:17;;;;;;;;;;;;;;;26.10;47.43;100519.88;4972753;28;6986;-73
2022/08/22 07:48:55;;;;;;;;;;;;;;;26.22;47.11;100526.75;4967430;28;7044;-73
2022/08/22 07:51:43;;;;;;;;;;;;;;;26.29;47.04;100525.78;4980036;28;6808;-73
2022/08/22 07:54:14;;;;;;;;;;;;;;;26.38;46.46;100524.75;4963553;28;6796;-73
2022/08/22 07:56:58;;;;;;;;;;;;;;;26.44;46.23;100528.16;4992510;28;7824;-73
2022/08/22 07:59:27;;;;;;;;;;;;;;;26.55;46.51;100524.47;4995295;28;6792;-73
2022/08/22 08:01:58;;;;;;;;;;;;;;;26.67;46.20;100510.28;4975018;28;6804;-73
2022/08/22 08:04:32;;;;;;;;;;;;;;;26.80;46.21;100511.81;4965170;28;6864;-73
2022/08/22 08:07:04;;;;;;;;;;;;;;;26.92;45.68;100517.75;4966603;28;7283;-73
2022/08/22 08:09:39;;;;;;;;;;;;;;;26.94;45.28;100511.56;4978020;28;7015;-73
2022/08/22 08:12:10;;;;;;;;;;;;;;;26.97;45.29;100518.53;4959792;28;7257;-73
2022/08/22 08:14:43;;;;;;;;;;;;;;;26.97;45.02;100519.41;4965380;28;7185;-73
2022/08/22 08:17:24;;;;;;;;;;;;;;;26.93;44.86;100512.47;4972863;28;7881;-73
2022/08/22 08:19:51;;;;;;;;;;;;;;;26.91;44.81;100509.00;4973978;28;7200;-73
2022/08/22 08:22:24;;;;;;;;;;;;;;;26.89;45.11;100509.00;4978037;28;6996;-73
2022/08/22 08:24:57;;;;;;;;;;;;;;;26.92;45.13;100508.09;4963428;28;6800;-73
2022/08/22 08:30:31;;;;;;;;;;;;;;;27.08;44.90;100511.31;4968788;28;6808;-73
2022/08/22 08:33:01;;;;;;;;;;;;;;;27.15;44.55;100507.66;4990648;28;6837;-73
2022/08/22 08:35:34;;;;;;;;;;;;;;;27.25;44.70;100503.09;4978390;28;6816;-73
2022/08/22 08:38:13;;;;;;;;;;;;;;;27.35;44.38;100498.50;4961804;28;6837;-73
2022/08/22 08:41:32;;;;;;;;;;;;;;;27.44;44.63;100494.84;4963077;28;7113;-73
2022/08/22 08:44:52;;;;;;;;;;;;;;;27.48;44.46;100491.22;4969722;28;6832;-73
2022/08/22 08:47:52;;;;;;;;;;;;;;;27.50;44.19;100494.69;4957315;28;7205;-74
2022/08/22 08:50:55;;;;;;;;;;;;;;;27.53;43.97;100494.63;4973224;28;7228;-73
2022/08/22 08:53:39;;;;;;;;;;;;;;;27.54;43.86;100493.78;4963810;28;7126;-73
2022/08/22 08:56:20;;;;;;;;;;;;;;;27.59;44.27;100501.56;4962064;28;7230;-73
2022/08/22 08:59:17;;;;;;;;;;;;;;;27.63;43.65;100497.13;4963833;28;7629;-73
2022/08/22 09:02:14;;;;;;;;;;;;;;;27.70;43.74;100498.69;4961868;28;6998;-73
2022/08/22 09:05:29;;;;;;;;;;;;;;;27.83;43.21;100497.53;4960263;28;7131;-73
2022/08/22 09:08:26;;;;;;;;;;;;;;;27.97;43.29;100486.69;4966621;28;6839;-73
2022/08/22 09:11:29;;;;;;;;;;;;;;;28.21;43.55;100487.03;4960110;28;7864;-73
2022/08/22 09:14:15;;;;;;;;;;;;;;;28.48;43.35;100491.63;4961584;28;7239;-73
2022/08/22 09:17:13;;;;;;;;;;;;;;;28.73;42.56;100486.63;4954282;28;7266;-73
2022/08/22 09:20:19;;;;;;;;;;;;;;;29.06;42.28;100485.75;4973044;28;7885;-73
2022/08/22 09:23:12;;;;;;;;;;;;;;;29.34;40.34;100474.41;4970103;28;6816;-74
2022/08/22 09:26:06;;;;;;;;;;;;;;;29.60;39.79;100468.41;4959360;28;6819;-74
2022/08/22 09:28:58;;;;;;;;;;;;;;;29.88;38.97;100472.78;4961696;28;6854;-73
2022/08/22 09:31:58;;;;;;;;;;;;;;;30.12;38.54;100466.81;4958354;28;8202;-74
2022/08/22 09:34:36;;;;;;;;;;;;;;;30.25;37.89;100468.16;4948980;28;7032;-74
2022/08/22 09:37:17;;;;;;;;;;;;;;;30.32;36.64;100467.00;4958231;28;7151;-73
2022/08/22 09:40:05;;;;;;;;;;;;;;;30.35;36.58;100471.31;4992831;28;6984;-73
2022/08/22 09:43:00;;;;;;;;;;;;;;;30.38;36.33;100470.38;4971998;28;6968;-74
2022/08/22 09:45:50;;;;;;;;;;;;;;;30.46;36.10;100469.19;4980076;28;7179;-74
2022/08/22 09:48:34;;;;;;;;;;;;;;;30.61;35.78;100466.94;4957543;28;6841;-74
2022/08/22 09:51:39;;;;;;;;;;;;;;;30.76;35.16;100470.84;4960113;28;7144;-74
2022/08/22 09:54:44;;;;;;;;;;;;;;;30.81;35.23;100474.22;4958565;28;7249;-74
2022/08/22 09:58:04;;;;;;;;;;;;;;;30.79;34.82;100476.03;4963534;28;6828;-74
2022/08/22 10:01:08;;;;;;;;;;;;;;;30.76;34.74;100470.84;4963658;28;7011;-74
2022/08/22 10:04:11;;;;;;;;;;;;;;;30.81;34.42;100468.91;4961993;28;7464;-75
2022/08/22 10:07:17;;;;;;;;;;;;;;;30.92;34.50;100463.22;4960235;28;6816;-74
2022/08/22 10:09:53;;;;;;;;;;;;;;;31.16;34.76;100472.03;4958822;28;6820;-74
2022/08/22 10:12:40;;;;;;;;;;;;;;;31.41;34.57;100467.63;4961724;28;7140;-74
2022/08/22 10:15:36;;;;;;;;;;;;;;;31.65;33.98;100464.97;4994643;28;7003;-74
2022/08/22 10:18:48;;;;;;;;;;;;;;;31.86;33.47;100452.66;4968216;28;6804;-75
2022/08/22 10:21:28;;;;;;;;;;;;;;;32.09;33.26;100443.75;4993916;28;7585;-74
2022/08/22 10:24:17;;;;;;;;;;;;;;;32.38;32.99;100438.19;4951885;28;7261;-75
2022/08/22 10:26:54;;;;;;;;;;;;;;;32.80;32.33;100437.22;4962128;28;6812;-75
2022/08/22 10:29:54;;;;;;;;;;;;;;;33.03;31.63;100440.69;4988266;28;7000;-75
2022/08/22 10:32:58;;;;;;;;;;;;;;;33.07;31.71;100436.94;4983576;28;7214;-75
2022/08/22 10:35:45;;;;;;;;;;;;;;;33.02;31.36;100433.63;4987677;28;9406;-75
2022/08/22 10:38:33;;;;;;;;;;;;;;;32.96;31.36;100428.63;4990137;28;7176;-75
2022/08/22 10:41:41;;;;;;;;;;;;;;;33.11;31.33;100425.25;4960629;28;6800;-75
2022/08/22 10:44:34;;;;;;;;;;;;;;;33.37;30.81;100415.19;4962442;28;7076;-75
2022/08/22 10:47:16;;;;;;;;;;;;;;;33.48;30.58;100419.16;4990173;28;6875;-74
2022/08/22 10:49:55;;;;;;;;;;;;;;;33.45;30.11;100412.16;4955609;28;8718;-74
2022/08/22 10:52:37;;;;;;;;;;;;;;;33.40;30.43;100422.16;4942709;28;6972;-75
2022/08/22 10:55:22;;;;;;;;;;;;;;;33.47;30.81;100407.69;4978469;28;7026;-75
2022/08/22 10:58:14;;;;;;;;;;;;;;;33.62;30.58;100416.72;4963730;28;7280;-75
2022/08/22 11:00:52;;;;;;;;;;;;;;;33.72;30.25;100410.94;4959967;28;7173;-75
2022/08/22 11:03:34;;;;;;;;;;;;;;;33.76;30.13;100409.84;4957167;28;7254;-75
2022/08/22 11:06:12;;;;;;;;;;;;;;;33.95;30.00;100407.16;4947620;28;7255;-75
2022/08/22 11:09:25;;;;;;;;;;;;;;;34.28;30.05;100408.16;4973757;28;7199;-75
2022/08/22 11:12:05;;;;;;;;;;;;;;;34.32;29.38;100409.75;4985929;28;8369;-75
2022/08/22 11:14:43;;;;;;;;;;;;;;;34.32;29.37;100412.41;4973337;28;7293;-75
2022/08/22 11:17:52;;;;;;;;;;;;;;;34.44;29.05;100408.25;4988536;28;7188;-75
2022/08/22 11:20:53;;;;;;;;;;;;;;;34.61;28.43;100410.03;4973816;28;7259;-75
2022/08/22 11:23:59;;;;;;;;;;;;;;;34.90;28.72;100400.47;4958160;28;6999;-75
2022/08/22 11:26:39;;;;;;;;;;;;;;;35.31;27.62;100401.81;4987413;28;7265;-75
2022/08/22 11:29:28;;;;;;;;;;;;;;;35.73;27.58;100402.16;4959889;28;7261;-75
2022/08/22 11:32:23;;;;;;;;;;;;;;;35.96;26.77;100399.09;4959104;28;7244;-75
2022/08/22 11:35:02;;;;;;;;;;;;;;;36.16;26.83;100389.91;4985729;28;7278;-75
2022/08/22 11:38:00;;;;;;;;;;;;;;;36.36;26.95;100388.72;4961625;28;6967;-76
2022/08/22 11:40:46;;;;;;;;;;;;;;;36.85;26.22;100386.63;4986194;28;6815;-75
2022/08/22 11:44:02;;;;;;;;;;;;;;;37.28;25.07;100391.06;4961792;28;6824;-76
2022/08/22 11:46:37;;;;;;;;;;;;;;;37.58;24.81;100389.19;4985786;28;7276;-76
2022/08/22 11:49:24;;;;;;;;;;;;;;;37.72;24.46;100386.44;4938881;28;7550;-76
2022/08/22 11:52:01;;;;;;;;;;;;;;;37.91;23.58;100383.38;4985828;28;7424;-75
2022/08/22 11:55:04;;;;;;;;;;;;;;;37.74;23.15;100387.19;4960434;28;7931;-75
2022/08/22 11:57:46;;;;;;;;;;;;;;;37.52;23.84;100377.91;4971418;28;6808;-75
2022/08/22 12:00:44;;;;;;;;;;;;;;;37.43;23.72;100386.53;4986038;28;7134;-75
2022/08/22 12:03:37;;;;;;;;;;;;;;;37.07;23.27;100386.16;4956599;28;11364;-75
2022/08/22 12:06:38;;;;;;;;;;;;;;;36.46;23.76;100382.81;4956817;28;7745;-75
2022/08/22 12:09:41;;;;;;;;;;;;;;;36.04;24.49;100375.50;4960285;28;6832;-75
2022/08/22 12:12:37;;;;;;;;;;;;;;;36.54;24.66;100375.19;4961811;28;6960;-75
2022/08/22 12:15:18;;;;;;;;;;;;;;;37.21;23.83;100373.72;4960558;28;6959;-76
2022/08/22 12:18:16;;;;;;;;;;;;;;;37.61;23.06;100365.75;4975839;28;6800;-76
2022/08/22 12:21:35;;;;;;;;;;;;;;;37.99;23.01;100364.13;4963546;28;6804;-76
2022/08/22 12:24:40;;;;;;;;;;;;;;;38.28;23.08;100363.97;4964856;28;7248;-76
2022/08/22 12:28:06;;;;;;;;;;;;;;;38.78;22.46;100357.81;4959270;28;7018;-76
2022/08/22 12:31:11;;;;;;;;;;;;;;;39.46;21.73;100359.22;4991111;28;7044;-76
2022/08/22 12:34:20;;;;;;;;;;;;;;;39.73;20.85;100358.94;4958787;28;6797;-75
2022/08/22 12:37:22;;;;;;;;;;;;;;;39.80;20.64;100354.81;4962206;28;7182;-75
2022/08/22 12:40:07;;;;;;;;;;;;;;;40.05;20.29;100350.28;4965088;28;6895;-75
2022/08/22 12:43:01;;;;;;;;;;;;;;;40.18;20.02;100342.13;4962077;28;6824;-75
2022/08/22 12:46:01;;;;;;;;;;;;;;;39.97;19.65;100344.66;4993815;28;7187;-75
2022/08/22 12:48:52;;;;;;;;;;;;;;;39.63;19.93;100334.69;4991749;28;7037;-75
2022/08/22 12:51:55;;;;;;;;;;;;;;;39.47;20.22;100336.81;4987851;28;7157;-75
2022/08/22 12:54:56;;;;;;;;;;;;;;;39.64;20.45;100333.69;4958186;28;7241;-75
2022/08/22 12:57:56;;;;;;;;;;;;;;;40.10;20.16;100325.78;4957578;28;7081;-75
2022/08/22 13:00:48;;;;;;;;;;;;;;;40.17;19.65;100335.03;4962045;28;7344;-74
2022/08/22 13:03:32;;;;;;;;;;;;;;;39.91;19.60;100329.91;4976001;28;7068;-75
2022/08/22 13:06:24;;;;;;;;;;;;;;;39.55;19.83;100329.91;4967966;28;7083;-76
2022/08/22 13:08:52;;;;;;;;;;;;;;;39.08;20.07;100328.94;4957736;28;7235;-74
2022/08/22 13:11:21;;;;;;;;;;;;;;;38.73;20.15;100334.03;4957775;28;7014;-74
2022/08/22 13:13:59;;;;;;;;;;;;;;;38.43;20.56;100329.03;4959395;28;7055;-75
2022/08/22 13:16:41;;;;;;;;;;;;;;;38.41;20.74;100325.63;4960383;28;7195;-76
2022/08/22 13:19:17;;;;;;;;;;;;;;;38.84;20.88;100322.56;4992671;28;7564;-75
2022/08/22 13:21:56;;;;;;;;;;;;;;;39.45;20.82;100318.16;4967305;28;6858;-74
2022/08/22 13:24:55;;;;;;;;;;;;;;;39.93;20.30;100311.84;4961666;28;7236;-74
2022/08/22 13:27:46;;;;;;;;;;;;;;;39.88;20.00;100305.13;4963716;28;7014;-75
2022/08/22 13:30:36;;;;;;;;;;;;;;;39.25;20.11;100314.28;4960581;28;7835;-74
2022/08/22 13:33:13;;;;;;;;;;;;;;;38.45;20.32;100316.41;4961941;28;11328;-76
2022/08/22 13:35:52;;;;;;;;;;;;;;;37.97;21.06;100317.06;4956509;28;6990;-75
2022/08/22 13:38:43;;;;;;;;;;;;;;;37.81;20.97;100306.56;4962257;28;6868;-75
2022/08/22 13:41:10;;;;;;;;;;;;;;;37.41;21.12;100310.09;4968977;28;7040;-75
2022/08/22 13:44:12;;;;;;;;;;;;;;;36.74;21.40;100315.22;4959347;28;6800;-75
2022/08/22 13:46:40;;;;;;;;;;;;;;;36.13;21.71;100315.44;4972589;28;7136;-74
2022/08/22 13:49:11;;;;;;;;;;;;;;;35.78;22.97;100305.06;4959459;28;7071;-75
2022/08/22 13:52:00;;;;;;;;;;;;;;;35.49;23.27;100305.81;4990880;28;6796;-75
2022/08/22 13:54:58;;;;;;;;;;;;;;;35.45;23.85;100302.47;4961462;28;7015;-75
2022/08/22 13:58:00;;;;;;;;;;;;;;;35.92;23.71;100301.56;4974270;28;6992;-75
2022/08/22 14:00:34;;;;;;;;;;;;;;;36.58;22.88;100291.34;4954020;28;6983;-75
2022/08/22 14:03:16;;;;;;;;;;;;;;;37.13;22.72;100291.41;4961590;28;7180;-75
2022/08/22 14:05:57;;;;;;;;;;;;;;;37.72;21.58;100289.34;4976032;28;6989;-75
2022/08/22 14:08:35;;;;;;;;;;;;;;;38.06;21.84;100281.66;4956914;28;7340;-75
2022/08/22 14:11:20;;;;;;;;;;;;;;;38.29;20.99;100287.19;4986052;28;6792;-75
2022/08/22 14:14:07;;;;;;;;;;;;;;;38.17;20.99;100288.94;4956586;28;7055;-76
2022/08/22 14:16:48;;;;;;;;;;;;;;;37.91;21.14;100283.56;4954523;28;7207;-74
2022/08/22 14:19:36;;;;;;;;;;;;;;;37.79;21.27;100283.47;4973898;28;6958;-75
2022/08/22 14:22:20;;;;;;;;;;;;;;;37.81;21.33;100282.50;4973851;28;6875;-75
2022/08/22 14:24:58;;;;;;;;;;;;;;;37.89;21.14;100278.31;4943413;28;7133;-74
2022/08/22 14:27:37;;;;;;;;;;;;;;;37.71;20.96;100271.56;4974674;28;6976;-74
2022/08/22 14:30:25;;;;;;;;;;;;;;;37.37;21.53;100280.03;4962533;28;6803;-75
2022/08/22 14:33:17;;;;;;;;;;;;;;;36.96;21.69;100274.66;4962287;28;11377;-75
2022/08/22 14:35:55;;;;;;;;;;;;;;;36.67;22.30;100271.22;4958337;28;6835;-75
2022/08/22 14:39:02;;;;;;;;;;;;;;;36.49;22.61;100266.06;4964411;28;6878;-75
2022/08/22 14:42:21;;;;;;;;;;;;;;;36.41;22.36;100255.91;4928801;28;7832;-75
2022/08/22 14:44:54;;;;;;;;;;;;;;;36.20;22.66;100260.78;4939176;28;6804;-74